Time;durP1;ratioP1;P1;durP2;ratioP2;P2;SDS_P1;SDS_P2;PMS_P1;PMS_P2;Temp;Humidity;BMP_temperature;BMP_pressure;BME280_temperature;BME280_humidity;BME280_pressure;Samples;Min_cycle;Max_cycle;Signal;HPM_P1;HPM_P2
2021/03/31 00:01:13;;;;;;;5.30;4.80;;;20.60;33.60;;;;;;5049920;28;20204;-43
2021/03/31 00:03:38;;;;;;;5.03;4.40;;;20.50;33.70;;;;;;5047618;28;20195;-42
2021/03/31 00:06:04;;;;;;;6.80;4.60;;;20.40;33.90;;;;;;5052160;28;20192;-42
2021/03/31 00:08:31;;;;;;;6.00;5.40;;;20.40;34.00;;;;;;5050444;28;20240;-43
2021/03/31 00:11:00;;;;;;;7.70;4.70;;;20.30;34.10;;;;;;5050431;28;20280;-42
2021/03/31 00:13:25;;;;;;;5.87;5.27;;;20.30;34.20;;;;;;5044327;28;20856;-42
2021/03/31 00:15:53;;;;;;;9.40;5.03;;;20.30;34.10;;;;;;5044491;28;20462;-43
2021/03/31 00:18:20;;;;;;;7.60;5.57;;;20.20;34.10;;;;;;5048060;28;20193;-42
2021/03/31 00:20:46;;;;;;;7.10;5.13;;;20.10;34.30;;;;;;5044960;28;20440;-43
2021/03/31 00:23:13;;;;;;;8.53;5.40;;;20.10;34.50;;;;;;5050028;28;20439;-43
2021/03/31 00:25:40;;;;;;;8.90;5.30;;;20.10;34.60;;;;;;5050437;28;20234;-42
2021/03/31 00:28:07;;;;;;;5.03;4.53;;;20.00;34.50;;;;;;5046824;28;20442;-43
2021/03/31 00:30:33;;;;;;;5.70;4.90;;;19.90;34.90;;;;;;5045555;28;20906;-42
2021/03/31 00:32:59;;;;;;;8.93;5.27;;;19.90;35.20;;;;;;5049788;28;20456;-42
2021/03/31 00:35:25;;;;;;;5.27;4.40;;;19.80;35.60;;;;;;5049118;28;20190;-42
2021/03/31 00:37:51;;;;;;;7.20;5.03;;;19.70;35.30;;;;;;5045837;28;20492;-42
2021/03/31 00:40:19;;;;;;;5.97;4.50;;;19.60;35.40;;;;;;5046593;28;20280;-42
2021/03/31 00:42:46;;;;;;;6.60;5.30;;;19.40;35.70;;;;;;5044308;28;20431;-43
2021/03/31 00:45:13;;;;;;;5.50;4.70;;;19.40;36.00;;;;;;5050236;28;20568;-43
2021/03/31 00:47:39;;;;;;;4.77;4.37;;;19.30;36.00;;;;;;5045767;28;20444;-42
2021/03/31 00:50:08;;;;;;;7.10;5.47;;;19.20;36.30;;;;;;5042236;28;20443;-42
2021/03/31 00:52:34;;;;;;;6.70;4.77;;;19.00;36.50;;;;;;5050951;28;20192;-43
2021/03/31 00:55:00;;;;;;;5.47;4.33;;;18.90;36.60;;;;;;5042900;28;20439;-43
2021/03/31 00:57:26;;;;;;;4.83;4.37;;;19.00;36.50;;;;;;5047873;28;20247;-42
2021/03/31 00:59:51;;;;;;;7.17;4.90;;;18.90;36.80;;;;;;5043883;28;20431;-42
2021/03/31 01:02:17;;;;;;;5.80;5.20;;;18.90;36.40;;;;;;5048130;28;20254;-43
2021/03/31 01:04:43;;;;;;;4.70;4.20;;;18.80;36.80;;;;;;5046546;28;20224;-43
2021/03/31 01:07:09;;;;;;;4.13;3.73;;;18.90;36.90;;;;;;5042396;28;20540;-42
2021/03/31 01:09:35;;;;;;;5.27;4.77;;;18.50;37.30;;;;;;5045969;28;20201;-42
2021/03/31 01:12:14;;;;;;;4.97;4.47;;;18.50;37.30;;;;;;5044153;28;20660;-42
2021/03/31 01:14:53;;;;;;;5.60;4.87;;;18.50;37.30;;;;;;5048664;28;20558;-42
2021/03/31 01:17:49;;;;;;;5.60;4.50;;;18.50;37.10;;;;;;5042385;28;20462;-42
2021/03/31 01:20:49;;;;;;;7.40;4.90;;;18.60;37.20;;;;;;5048163;28;21051;-43
2021/03/31 01:23:36;;;;;;;7.37;5.17;;;18.50;37.40;;;;;;5048056;28;20439;-43
2021/03/31 01:26:09;;;;;;;4.97;4.33;;;18.50;37.60;;;;;;5045237;28;20451;-43
2021/03/31 01:29:08;;;;;;;6.10;4.87;;;18.40;37.40;;;;;;5045233;28;20431;-42
2021/03/31 01:31:57;;;;;;;5.03;4.53;;;18.20;37.70;;;;;;5047094;28;20504;-42
2021/03/31 01:34:44;;;;;;;6.63;4.20;;;18.10;37.80;;;;;;5044537;28;20447;-42
2021/03/31 01:37:33;;;;;;;8.83;4.53;;;18.10;37.90;;;;;;5045598;28;20443;-42
2021/03/31 01:40:03;;;;;;;6.43;3.90;;;18.00;38.10;;;;;;5045840;28;20459;-42
2021/03/31 01:42:32;;;;;;;9.00;5.00;;;18.00;38.10;;;;;;5045548;28;20427;-42
2021/03/31 01:45:01;;;;;;;5.90;4.90;;;18.00;38.20;;;;;;5045927;28;20495;-42
2021/03/31 01:47:33;;;;;;;6.30;4.97;;;18.00;38.00;;;;;;5046545;28;20436;-42
2021/03/31 01:50:01;;;;;;;6.97;4.53;;;18.00;37.90;;;;;;5044385;28;20554;-42
2021/03/31 01:52:28;;;;;;;6.83;5.00;;;18.00;37.80;;;;;;5048128;28;20475;-42
2021/03/31 01:54:56;;;;;;;5.93;4.90;;;17.80;37.80;;;;;;5045333;28;20440;-42
2021/03/31 01:57:26;;;;;;;7.23;4.60;;;17.40;39.20;;;;;;5042824;28;20547;-42
2021/03/31 01:59:53;;;;;;;6.33;4.50;;;17.20;39.50;;;;;;5049856;28;20419;-42
2021/03/31 02:02:21;;;;;;;6.03;4.50;;;17.20;39.70;;;;;;5031330;28;20990;-42
2021/03/31 02:04:48;;;;;;;5.60;4.60;;;17.20;39.90;;;;;;5045811;28;20485;-42
2021/03/31 02:07:14;;;;;;;7.40;4.80;;;17.30;39.50;;;;;;5045545;28;20833;-42
2021/03/31 02:09:44;;;;;;;5.10;4.60;;;17.30;39.70;;;;;;5047543;28;20447;-42
2021/03/31 02:12:13;;;;;;;4.73;4.33;;;17.30;39.60;;;;;;5044582;28;20791;-43
2021/03/31 02:14:42;;;;;;;5.40;4.87;;;17.30;39.30;;;;;;5041593;28;20432;-42
2021/03/31 02:17:12;;;;;;;6.83;5.03;;;17.20;40.00;;;;;;5040886;28;20469;-42
2021/03/31 02:19:39;;;;;;;5.13;4.63;;;17.30;39.30;;;;;;5044313;28;20435;-42
2021/03/31 02:22:06;;;;;;;7.20;4.40;;;17.40;39.40;;;;;;5046922;28;20464;-42
2021/03/31 02:24:33;;;;;;;5.30;4.30;;;17.40;39.40;;;;;;5047225;28;20573;-43
2021/03/31 02:26:59;;;;;;;8.70;4.90;;;17.40;39.30;;;;;;5044276;28;20438;-43
2021/03/31 02:29:25;;;;;;;6.97;4.60;;;17.30;39.30;;;;;;5046978;28;20478;-42
2021/03/31 02:31:52;;;;;;;7.40;5.00;;;17.40;39.30;;;;;;5046893;28;20970;-42
2021/03/31 02:34:20;;;;;;;11.13;4.93;;;17.20;39.10;;;;;;5041304;28;20189;-42
2021/03/31 02:36:46;;;;;;;5.13;4.20;;;17.10;39.90;;;;;;5041333;28;20439;-42
2021/03/31 02:39:14;;;;;;;5.50;4.67;;;16.90;40.00;;;;;;5044022;28;20950;-42
2021/03/31 02:41:44;;;;;;;6.73;4.53;;;17.00;40.10;;;;;;5046630;28;20522;-42
2021/03/31 02:44:12;;;;;;;7.80;5.20;;;17.10;39.70;;;;;;5047133;28;20529;-46
2021/03/31 02:46:41;;;;;;;6.43;4.97;;;16.90;39.80;;;;;;5045524;28;20441;-42
2021/03/31 02:49:08;;;;;;;8.70;4.93;;;16.80;40.10;;;;;;5044251;28;20439;-42
2021/03/31 02:51:35;;;;;;;4.93;4.40;;;16.70;40.20;;;;;;5047941;28;20439;-41
2021/03/31 02:54:01;;;;;;;5.30;4.77;;;16.50;40.80;;;;;;5041308;28;20431;-43
2021/03/31 02:56:29;;;;;;;6.77;5.50;;;16.50;40.60;;;;;;5044956;28;20443;-42
2021/03/31 02:58:56;;;;;;;5.20;4.70;;;16.40;41.10;;;;;;5040765;28;20427;-42
2021/03/31 03:01:23;;;;;;;5.80;5.30;;;16.40;40.90;;;;;;5042172;28;20440;-43
2021/03/31 03:03:48;;;;;;;9.67;4.90;;;16.50;40.80;;;;;;5045165;28;20431;-42
2021/03/31 03:06:15;;;;;;;6.10;4.90;;;16.60;40.50;;;;;;5046469;28;20468;-42
2021/03/31 03:08:41;;;;;;;8.00;4.00;;;16.60;40.30;;;;;;5047811;28;20224;-42
2021/03/31 03:11:08;;;;;;;5.90;4.53;;;16.70;40.60;;;;;;5040892;28;20446;-42
2021/03/31 03:13:34;;;;;;;8.90;5.00;;;16.40;40.40;;;;;;5044065;28;20565;-43
2021/03/31 03:16:01;;;;;;;6.93;4.80;;;16.50;40.40;;;;;;5047713;28;20431;-43
2021/03/31 03:18:27;;;;;;;5.53;4.50;;;16.60;40.60;;;;;;5047130;28;20569;-43
2021/03/31 03:20:53;;;;;;;5.03;4.60;;;16.60;40.40;;;;;;5044466;28;20522;-42
2021/03/31 03:23:19;;;;;;;5.33;4.50;;;16.60;39.70;;;;;;5045346;28;20406;-42
2021/03/31 03:25:49;;;;;;;6.80;4.87;;;16.70;40.20;;;;;;5043937;28;20278;-42
2021/03/31 03:28:20;;;;;;;8.20;5.27;;;16.70;39.90;;;;;;5043044;28;20504;-44
2021/03/31 03:30:47;;;;;;;4.43;4.03;;;16.70;40.30;;;;;;5048840;28;20807;-42
2021/03/31 03:33:14;;;;;;;8.47;4.20;;;16.70;39.80;;;;;;5049842;28;20458;-43
2021/03/31 03:35:40;;;;;;;5.73;5.00;;;16.80;39.90;;;;;;5048466;28;20434;-42
2021/03/31 03:38:06;;;;;;;5.10;4.60;;;16.80;40.00;;;;;;5046147;28;20469;-42
2021/03/31 03:40:31;;;;;;;5.50;5.00;;;16.40;40.50;;;;;;5048481;28;20431;-46
2021/03/31 03:42:57;;;;;;;6.67;4.60;;;16.30;40.50;;;;;;5052194;28;20192;-43
2021/03/31 03:45:25;;;;;;;12.83;5.60;;;15.60;40.90;;;;;;5044239;28;20235;-44
2021/03/31 03:47:52;;;;;;;7.70;4.97;;;15.10;42.10;;;;;;5049080;28;20649;-43
2021/03/31 03:50:19;;;;;;;7.83;5.07;;;14.90;42.80;;;;;;5042520;28;20940;-45
2021/03/31 03:52:48;;;;;;;7.60;5.30;;;14.50;43.40;;;;;;5043660;28;20444;-43
2021/03/31 03:55:24;;;;;;;7.53;5.30;;;14.20;44.10;;;;;;5046694;28;20435;-44
2021/03/31 03:57:51;;;;;;;5.70;5.10;;;14.00;44.60;;;;;;5041152;28;21056;-45
2021/03/31 04:00:19;;;;;;;6.23;5.40;;;13.80;44.90;;;;;;5043088;28;21212;-43
2021/03/31 04:02:50;;;;;;;7.40;4.90;;;13.70;45.10;;;;;;5041947;28;20450;-45
2021/03/31 04:05:16;;;;;;;6.83;5.03;;;13.60;45.40;;;;;;5042942;28;20488;-45
2021/03/31 04:07:42;;;;;;;8.27;5.60;;;13.50;45.50;;;;;;5045240;28;21032;-44
2021/03/31 04:10:08;;;;;;;6.40;5.53;;;13.40;45.90;;;;;;5042428;28;20193;-43
2021/03/31 04:12:36;;;;;;;8.97;5.87;;;13.10;46.40;;;;;;5051444;28;20189;-44
2021/03/31 04:15:03;;;;;;;6.20;5.30;;;12.60;47.40;;;;;;5043985;28;20806;-43
2021/03/31 04:17:30;;;;;;;11.03;6.60;;;12.40;48.00;;;;;;5049268;28;20427;-43
2021/03/31 04:19:56;;;;;;;6.70;5.90;;;12.20;48.70;;;;;;5048688;28;20938;-45
2021/03/31 04:22:22;;;;;;;6.77;5.13;;;12.20;48.60;;;;;;5047223;28;20442;-43
2021/03/31 04:24:47;;;;;;;8.10;5.10;;;12.20;48.70;;;;;;5048867;28;20303;-43
2021/03/31 04:27:15;;;;;;;5.77;5.00;;;12.30;48.70;;;;;;5044983;28;20446;-43
2021/03/31 04:29:46;;;;;;;6.63;5.40;;;12.20;48.90;;;;;;5050105;28;20231;-43
2021/03/31 04:32:17;;;;;;;7.77;5.40;;;12.40;48.60;;;;;;5043278;28;20833;-43
2021/03/31 04:34:44;;;;;;;5.20;4.63;;;12.60;48.00;;;;;;5047291;28;20439;-43
2021/03/31 04:37:10;;;;;;;7.70;5.57;;;12.60;47.70;;;;;;5044515;28;20443;-42
2021/03/31 04:39:38;;;;;;;6.40;5.47;;;12.30;48.30;;;;;;5050114;28;20427;-43
2021/03/31 04:42:06;;;;;;;7.97;5.30;;;12.10;48.60;;;;;;5040119;28;20782;-43
2021/03/31 04:44:31;;;;;;;7.17;5.10;;;12.00;48.90;;;;;;5046098;28;21121;-42
2021/03/31 04:46:57;;;;;;;6.07;5.33;;;12.00;49.00;;;;;;5048877;28;20454;-43
2021/03/31 04:49:23;;;;;;;6.60;4.50;;;11.90;49.30;;;;;;5046674;28;20185;-43
2021/03/31 04:51:48;;;;;;;6.10;5.40;;;11.90;49.20;;;;;;5046676;28;20204;-43
2021/03/31 04:54:14;;;;;;;7.90;5.53;;;11.70;49.70;;;;;;5048132;28;20227;-46
2021/03/31 04:56:39;;;;;;;10.37;6.70;;;11.30;50.40;;;;;;5046907;28;20272;-43
2021/03/31 04:59:05;;;;;;;9.43;6.13;;;11.10;51.30;;;;;;5046858;28;20275;-43
2021/03/31 05:01:31;;;;;;;6.53;5.83;;;10.80;52.20;;;;;;5048121;28;20211;-42
2021/03/31 05:03:56;;;;;;;7.80;5.23;;;11.00;52.10;;;;;;5045395;28;20943;-42
2021/03/31 05:06:22;;;;;;;7.40;5.23;;;11.10;51.60;;;;;;5043964;28;20185;-44
2021/03/31 05:08:47;;;;;;;8.90;5.30;;;11.10;51.70;;;;;;5044277;28;20838;-43
2021/03/31 05:11:13;;;;;;;8.53;5.50;;;11.30;51.30;;;;;;5045646;28;20197;-42
2021/03/31 05:13:39;;;;;;;7.77;4.20;;;11.40;51.00;;;;;;5048214;28;20196;-42
2021/03/31 05:16:05;;;;;;;11.40;4.93;;;12.00;55.50;;;;;;5044841;28;20188;-43
2021/03/31 05:18:30;;;;;;;6.83;4.13;;;12.80;51.50;;;;;;5048055;28;20203;-42
2021/03/31 05:20:56;;;;;;;8.30;5.00;;;13.50;48.60;;;;;;5041122;28;20942;-42
2021/03/31 05:23:22;;;;;;;5.90;4.80;;;14.10;46.40;;;;;;5045922;28;20236;-42
2021/03/31 05:25:48;;;;;;;6.23;4.40;;;14.70;44.70;;;;;;5046896;28;20632;-44
2021/03/31 05:28:13;;;;;;;14.13;4.93;;;15.10;44.00;;;;;;5042998;28;20442;-42
2021/03/31 05:30:39;;;;;;;5.43;4.93;;;15.50;42.90;;;;;;5040962;28;20196;-42
2021/03/31 05:33:05;;;;;;;5.67;4.57;;;15.80;41.80;;;;;;5043398;28;20264;-43
2021/03/31 05:35:31;;;;;;;6.20;4.77;;;16.10;41.20;;;;;;5046597;28;20199;-43
2021/03/31 05:37:56;;;;;;;5.53;4.90;;;16.20;40.60;;;;;;5045359;28;20443;-43
2021/03/31 05:40:22;;;;;;;8.30;5.40;;;16.40;40.10;;;;;;5031648;28;20276;-42
2021/03/31 05:42:48;;;;;;;6.20;5.40;;;16.30;40.20;;;;;;5048339;28;20817;-42
2021/03/31 05:45:14;;;;;;;6.20;5.27;;;16.30;40.00;;;;;;5042509;28;20483;-42
2021/03/31 05:47:43;;;;;;;8.43;4.97;;;16.20;40.00;;;;;;5048794;28;20603;-43
2021/03/31 05:50:12;;;;;;;8.73;5.50;;;16.30;40.00;;;;;;5044347;28;20458;-42
2021/03/31 05:52:38;;;;;;;7.10;4.93;;;16.50;39.70;;;;;;5045064;28;20431;-42
2021/03/31 05:55:06;;;;;;;8.70;5.33;;;16.50;39.40;;;;;;5043637;28;21180;-43
2021/03/31 05:57:33;;;;;;;11.00;5.27;;;16.50;39.60;;;;;;5043733;28;20439;-43
2021/03/31 06:00:01;;;;;;;8.30;5.50;;;16.50;39.50;;;;;;5044308;28;20506;-44
2021/03/31 06:02:28;;;;;;;9.50;6.60;;;16.30;39.60;;;;;;5044053;28;20453;-42
2021/03/31 06:04:54;;;;;;;6.57;5.50;;;16.20;39.70;;;;;;5046372;28;21000;-42
2021/03/31 06:07:20;;;;;;;6.93;5.07;;;16.30;39.80;;;;;;5043347;28;20474;-44
2021/03/31 06:10:28;;;;;;;9.07;6.70;;;16.40;39.50;;;;;;5046125;28;20201;-43
2021/03/31 06:13:01;;;;;;;9.43;6.47;;;16.20;39.80;;;;;;5024485;28;20447;-43
2021/03/31 06:15:32;;;;;;;8.63;6.20;;;16.20;40.10;;;;;;5015358;28;20456;-45
2021/03/31 06:18:01;;;;;;;9.53;6.57;;;16.30;40.00;;;;;;5033576;28;20435;-42
2021/03/31 06:20:59;;;;;;;6.63;6.03;;;16.20;40.30;;;;;;5046068;28;20435;-42
2021/03/31 06:26:04;;;;;;;5.70;5.10;;;16.20;40.10;;;;;;5042568;28;20493;-42
2021/03/31 06:28:37;;;;;;;8.87;6.47;;;16.30;40.20;;;;;;5042605;28;20473;-42
2021/03/31 06:31:10;;;;;;;8.83;6.27;;;16.40;40.20;;;;;;5041800;28;20435;-44
2021/03/31 06:33:41;;;;;;;9.30;6.90;;;16.20;40.40;;;;;;5045544;28;20825;-44
2021/03/31 06:36:09;;;;;;;7.63;5.83;;;15.90;41.30;;;;;;5046062;28;20840;-43
2021/03/31 06:38:38;;;;;;;10.17;7.10;;;15.60;41.90;;;;;;5041751;28;20480;-43
2021/03/31 06:41:16;;;;;;;6.77;5.40;;;15.90;41.80;;;;;;5047451;28;20439;-42
2021/03/31 06:46:42;;;;;;;10.83;6.00;;;16.20;41.30;;;;;;5045347;28;20443;-43
2021/03/31 06:49:08;;;;;;;7.00;5.90;;;16.60;40.90;;;;;;5049172;28;20455;-43
2021/03/31 06:51:34;;;;;;;6.53;5.57;;;16.80;40.50;;;;;;5047262;28;20466;-42
2021/03/31 06:54:19;;;;;;;8.70;5.87;;;17.00;40.40;;;;;;5047438;28;20524;-43
2021/03/31 06:56:55;;;;;;;6.57;5.17;;;17.00;40.40;;;;;;5041435;28;20554;-42
2021/03/31 06:59:31;;;;;;;8.90;5.97;;;16.80;40.90;;;;;;5049157;28;20958;-43
2021/03/31 07:01:57;;;;;;;9.00;5.90;;;17.00;40.60;;;;;;5047894;28;20530;-42
2021/03/31 07:04:28;;;;;;;9.13;6.73;;;17.00;40.60;;;;;;5053322;28;20966;-42
2021/03/31 07:07:02;;;;;;;11.20;6.03;;;17.10;40.20;;;;;;5049378;28;20431;-42
2021/03/31 07:09:28;;;;;;;8.10;6.83;;;17.30;39.70;;;;;;5053234;28;20489;-43
2021/03/31 07:11:54;;;;;;;8.73;7.10;;;17.50;39.40;;;;;;5051736;28;20442;-43
2021/03/31 07:14:21;;;;;;;9.73;5.40;;;17.60;39.30;;;;;;5051287;28;20419;-44
2021/03/31 07:16:49;;;;;;;7.47;5.70;;;17.40;39.20;;;;;;5049779;28;20247;-45
2021/03/31 07:19:16;;;;;;;11.07;6.60;;;17.50;39.40;;;;;;5049332;28;20426;-43
2021/03/31 07:21:42;;;;;;;9.50;5.90;;;17.70;38.90;;;;;;5049344;28;20467;-43
2021/03/31 07:24:08;;;;;;;10.40;6.30;;;17.90;38.90;;;;;;5049178;28;20415;-43
2021/03/31 07:26:34;;;;;;;8.80;6.40;;;17.80;38.70;;;;;;5047221;28;20435;-42
2021/03/31 07:29:00;;;;;;;10.90;6.17;;;17.60;38.80;;;;;;5052514;28;20560;-46
2021/03/31 07:31:29;;;;;;;9.77;7.03;;;17.70;39.10;;;;;;5050838;28;20435;-42
2021/03/31 07:34:18;;;;;;;7.23;6.00;;;18.00;38.90;;;;;;5049938;28;20427;-42
2021/03/31 07:36:47;;;;;;;7.80;7.00;;;18.10;38.90;;;;;;5049410;28;20540;-43
2021/03/31 07:39:15;;;;;;;7.90;6.40;;;18.30;38.40;;;;;;5049957;28;21015;-43
2021/03/31 07:41:42;;;;;;;8.53;6.63;;;18.30;38.40;;;;;;5044464;28;20504;-44
2021/03/31 07:44:12;;;;;;;9.40;6.13;;;18.20;38.70;;;;;;5046892;28;20439;-43
2021/03/31 07:46:40;;;;;;;12.97;7.60;;;18.00;38.80;;;;;;5046342;28;20488;-43
2021/03/31 07:49:07;;;;;;;10.67;6.77;;;17.60;40.00;;;;;;5046339;28;20504;-41
2021/03/31 07:51:33;;;;;;;8.60;6.30;;;17.90;40.00;;;;;;5044370;28;20435;-41
2021/03/31 07:54:02;;;;;;;9.33;6.20;;;18.20;39.60;;;;;;5039470;28;20450;-41
2021/03/31 07:56:31;;;;;;;8.37;6.60;;;18.60;38.90;;;;;;5045826;28;20427;-41
2021/03/31 07:59:03;;;;;;;11.07;6.67;;;19.10;38.10;;;;;;5047752;28;20444;-41
2021/03/31 08:01:35;;;;;;;9.57;7.10;;;19.00;38.10;;;;;;5041138;28;20951;-44
2021/03/31 08:04:02;;;;;;;7.40;6.33;;;19.30;37.80;;;;;;5045083;28;20447;-47
2021/03/31 08:06:32;;;;;;;10.00;7.50;;;19.60;37.30;;;;;;5049932;28;20446;-42
2021/03/31 08:09:05;;;;;;;8.80;6.93;;;19.90;37.10;;;;;;5045990;28;20570;-47
2021/03/31 08:11:39;;;;;;;12.20;7.80;;;19.80;36.80;;;;;;5046852;28;20455;-42
2021/03/31 08:14:06;;;;;;;7.33;6.50;;;19.80;37.00;;;;;;5046258;28;20493;-42
2021/03/31 08:16:37;;;;;;;8.80;6.63;;;19.90;36.70;;;;;;5043977;28;20431;-42
2021/03/31 08:19:13;;;;;;;8.50;6.70;;;19.80;36.30;;;;;;5048071;28;20961;-43
2021/03/31 08:21:40;;;;;;;9.53;6.50;;;19.90;36.50;;;;;;5048087;28;20430;-41
2021/03/31 08:24:06;;;;;;;7.47;6.70;;;20.00;36.20;;;;;;5044935;28;20876;-43
2021/03/31 08:26:38;;;;;;;10.13;7.37;;;20.20;36.00;;;;;;5043841;28;20860;-41
2021/03/31 08:29:27;;;;;;;9.33;7.10;;;20.40;35.90;;;;;;5046742;28;20849;-41
2021/03/31 08:31:53;;;;;;;8.47;6.60;;;20.80;35.70;;;;;;5044921;28;20449;-41
2021/03/31 08:34:19;;;;;;;11.73;7.67;;;20.80;35.10;;;;;;5047938;28;20452;-42
2021/03/31 08:36:44;;;;;;;10.00;6.80;;;20.80;35.30;;;;;;5044423;28;20660;-41
2021/03/31 08:39:12;;;;;;;14.30;6.97;;;21.10;35.30;;;;;;5045680;28;20439;-43
2021/03/31 08:41:40;;;;;;;9.97;7.43;;;21.20;34.40;;;;;;5042538;28;20315;-41
2021/03/31 08:44:17;;;;;;;11.77;6.93;;;21.20;34.30;;;;;;5042705;28;20435;-41
2021/03/31 08:46:43;;;;;;;9.10;7.00;;;21.10;34.70;;;;;;5048438;28;20443;-42
2021/03/31 08:49:29;;;;;;;11.07;7.40;;;21.00;34.20;;;;;;5046105;28;20443;-40
2021/03/31 08:51:57;;;;;;;9.53;7.33;;;21.00;34.60;;;;;;5044749;28;20209;-40
2021/03/31 08:54:45;;;;;;;9.70;7.33;;;21.10;35.00;;;;;;5038685;28;20795;-41
2021/03/31 08:57:15;;;;;;;9.10;7.50;;;21.40;34.30;;;;;;5037967;28;21315;-41
2021/03/31 08:59:44;;;;;;;9.70;7.83;;;21.70;33.60;;;;;;5041500;28;20523;-42
2021/03/31 09:02:10;;;;;;;11.47;8.57;;;21.80;33.70;;;;;;5045808;28;20500;-42
2021/03/31 09:04:36;;;;;;;9.50;7.43;;;21.90;33.60;;;;;;5039937;28;20488;-41
2021/03/31 09:07:09;;;;;;;11.37;7.70;;;22.20;33.40;;;;;;5033606;28;20520;-43
2021/03/31 09:09:36;;;;;;;12.57;8.10;;;22.20;33.80;;;;;;5045181;28;20534;-44
2021/03/31 09:12:05;;;;;;;10.70;7.70;;;22.50;34.30;;;;;;5043358;28;20515;-42
2021/03/31 09:14:31;;;;;;;11.57;9.00;;;22.60;33.40;;;;;;5047494;28;20942;-42
2021/03/31 09:17:06;;;;;;;12.13;8.70;;;22.70;32.10;;;;;;5042420;28;20443;-41
2021/03/31 09:19:39;;;;;;;12.60;8.90;;;22.90;31.30;;;;;;5035198;28;20546;-45
2021/03/31 09:22:22;;;;;;;11.07;7.53;;;23.00;32.10;;;;;;5040406;28;20831;-45
2021/03/31 09:24:50;;;;;;;11.20;8.87;;;23.30;31.80;;;;;;5035724;28;20489;-44
2021/03/31 09:27:29;;;;;;;15.10;9.30;;;23.70;30.90;;;;;;5041448;28;20461;-43
2021/03/31 09:29:56;;;;;;;9.63;7.80;;;23.70;30.00;;;;;;5037132;28;20431;-42
2021/03/31 09:32:37;;;;;;;10.90;7.73;;;24.00;29.90;;;;;;5043844;28;20442;-42
2021/03/31 09:35:15;;;;;;;14.40;8.70;;;24.50;30.00;;;;;;5045196;28;20447;-42
2021/03/31 09:37:52;;;;;;;11.20;8.53;;;24.80;30.10;;;;;;5042830;28;20427;-40
2021/03/31 09:40:29;;;;;;;12.43;8.40;;;25.00;29.40;;;;;;5029937;28;20535;-40
2021/03/31 09:43:00;;;;;;;14.17;9.70;;;25.20;29.00;;;;;;5045696;28;20461;-40
2021/03/31 09:45:28;;;;;;;10.90;8.70;;;25.40;28.90;;;;;;5044618;28;20886;-40
2021/03/31 09:47:55;;;;;;;13.20;8.83;;;25.60;28.40;;;;;;5037340;28;20491;-41
2021/03/31 09:50:28;;;;;;;11.83;8.50;;;25.70;28.30;;;;;;5031589;28;20448;-40
2021/03/31 09:52:59;;;;;;;15.87;9.13;;;25.90;28.20;;;;;;5047878;28;20993;-42
2021/03/31 09:55:26;;;;;;;12.33;8.60;;;26.00;28.00;;;;;;5048839;28;20471;-41
2021/03/31 09:57:53;;;;;;;12.43;9.77;;;26.10;27.50;;;;;;5047965;28;20470;-40
2021/03/31 10:00:21;;;;;;;13.10;8.60;;;26.20;27.30;;;;;;5046924;28;20443;-41
2021/03/31 10:02:47;;;;;;;11.10;8.50;;;26.30;27.40;;;;;;5045325;28;20453;-41
2021/03/31 10:05:24;;;;;;;11.77;8.37;;;26.50;27.00;;;;;;5045479;28;20499;-40
2021/03/31 10:08:00;;;;;;;13.40;8.47;;;26.10;27.50;;;;;;5045968;28;20508;-41
2021/03/31 10:10:51;;;;;;;13.00;8.70;;;26.40;27.60;;;;;;5040085;28;20445;-41
2021/03/31 10:13:18;;;;;;;9.20;7.90;;;26.80;27.20;;;;;;5043385;28;20431;-40
2021/03/31 10:15:54;;;;;;;11.77;8.30;;;26.80;27.70;;;;;;5044084;28;20451;-40
2021/03/31 10:18:20;;;;;;;10.17;7.93;;;27.10;26.30;;;;;;5047965;28;20528;-41
2021/03/31 10:20:47;;;;;;;10.80;9.33;;;27.50;26.10;;;;;;5044722;28;20446;-41
2021/03/31 10:23:34;;;;;;;11.13;9.20;;;27.60;26.20;;;;;;5045984;28;20493;-40
2021/03/31 10:26:16;;;;;;;16.97;8.40;;;27.80;26.20;;;;;;5042902;28;20487;-41
2021/03/31 10:28:41;;;;;;;8.77;7.90;;;28.20;26.40;;;;;;5045158;28;20439;-41
2021/03/31 10:31:34;;;;;;;11.80;8.27;;;28.20;25.10;;;;;;5043362;28;21227;-41
2021/03/31 10:34:00;;;;;;;9.80;7.77;;;28.40;25.40;;;;;;5039883;28;20212;-42
2021/03/31 10:53:11;;;;;;;8.07;7.20;;;29.40;23.70;;;;;;5044959;28;20443;-41
2021/03/31 10:55:41;;;;;;;8.70;6.50;;;29.60;23.20;;;;;;5044975;28;20522;-43
2021/03/31 10:58:06;;;;;;;11.13;8.20;;;29.70;23.40;;;;;;5045953;28;20850;-42
2021/03/31 11:00:34;;;;;;;10.97;8.57;;;29.90;22.60;;;;;;5045240;28;20468;-46
2021/03/31 11:03:00;;;;;;;7.30;6.60;;;30.00;22.20;;;;;;5045406;28;20285;-42
2021/03/31 11:05:25;;;;;;;9.33;7.50;;;30.10;22.40;;;;;;5043413;28;21033;-42
2021/03/31 11:07:51;;;;;;;9.53;7.80;;;30.20;21.80;;;;;;5042712;28;20256;-43
2021/03/31 11:10:16;;;;;;;9.47;7.70;;;30.30;22.10;;;;;;5045310;28;20200;-46
2021/03/31 11:12:43;;;;;;;12.27;6.90;;;30.50;22.50;;;;;;5043553;28;20549;-44
2021/03/31 11:15:11;;;;;;;10.30;7.33;;;30.60;21.60;;;;;;5045310;28;20203;-42
2021/03/31 11:17:50;;;;;;;7.70;6.90;;;30.80;22.40;;;;;;5045019;28;21353;-43
2021/03/31 11:27:57;;;;;;;9.40;7.60;;;31.80;22.20;;;;;;5046258;28;20427;-45
2021/03/31 11:30:23;;;;;;;8.53;7.20;;;31.90;21.30;;;;;;5042937;28;20431;-43
2021/03/31 11:32:49;;;;;;;12.20;8.07;;;31.90;20.30;;;;;;5044167;28;20224;-42
2021/03/31 11:35:14;;;;;;;13.17;6.80;;;31.80;19.90;;;;;;5046672;28;20242;-43
2021/03/31 11:37:40;;;;;;;10.27;7.40;;;31.70;21.30;;;;;;5037832;28;20208;-46
2021/03/31 11:40:08;;;;;;;9.67;8.47;;;31.70;20.00;;;;;;5032098;28;20198;-43
2021/03/31 11:42:33;;;;;;;10.27;7.30;;;31.80;19.20;;;;;;5048805;28;20192;-42
2021/03/31 11:44:59;;;;;;;8.10;6.43;;;31.90;19.40;;;;;;5041597;28;20896;-42
2021/03/31 11:47:25;;;;;;;7.47;6.67;;;32.00;19.40;;;;;;5044340;28;20617;-43
2021/03/31 11:49:50;;;;;;;8.50;7.70;;;32.10;19.10;;;;;;5049609;28;20431;-42
2021/03/31 11:52:16;;;;;;;10.73;7.47;;;32.10;18.80;;;;;;5050735;28;20196;-44
2021/03/31 11:54:42;;;;;;;10.30;7.60;;;32.20;19.00;;;;;;5049091;28;20267;-42
2021/03/31 11:57:07;;;;;;;8.83;7.67;;;32.20;19.20;;;;;;5044591;28;20250;-42
2021/03/31 11:59:33;;;;;;;14.50;9.23;;;32.10;19.00;;;;;;5046092;28;20200;-43
2021/03/31 12:01:58;;;;;;;10.23;8.50;;;32.20;18.90;;;;;;5048345;28;20306;-42
2021/03/31 12:04:24;;;;;;;8.50;7.63;;;32.20;19.20;;;;;;5045689;28;20232;-42
2021/03/31 12:06:50;;;;;;;7.30;6.63;;;32.30;19.10;;;;;;5049150;28;20535;-42
2021/03/31 12:09:16;;;;;;;8.87;7.97;;;32.40;19.40;;;;;;5045009;28;20255;-45
2021/03/31 12:11:41;;;;;;;10.47;8.20;;;32.50;19.40;;;;;;5044771;28;20470;-43
2021/03/31 12:14:07;;;;;;;10.37;8.53;;;32.70;19.30;;;;;;5042814;28;20201;-41
2021/03/31 12:16:33;;;;;;;14.50;8.93;;;32.60;18.90;;;;;;5048247;28;20243;-44
2021/03/31 12:18:58;;;;;;;9.30;8.37;;;32.80;19.90;;;;;;5052219;28;20192;-45
2021/03/31 12:21:24;;;;;;;9.30;7.50;;;33.00;18.80;;;;;;5048082;28;20573;-44
2021/03/31 12:23:49;;;;;;;8.77;7.80;;;33.10;18.60;;;;;;5050829;28;20223;-43
2021/03/31 12:26:16;;;;;;;12.40;7.97;;;33.10;18.40;;;;;;5046263;28;20231;-44
2021/03/31 12:28:48;;;;;;;12.77;8.17;;;32.90;18.20;;;;;;5050002;28;20188;-46
2021/03/31 12:31:14;;;;;;;9.90;8.90;;;32.90;17.90;;;;;;5047546;28;20550;-43
2021/03/31 12:33:40;;;;;;;10.93;7.90;;;32.80;18.00;;;;;;5049810;28;20906;-45
2021/03/31 12:36:06;;;;;;;7.97;7.17;;;32.90;18.60;;;;;;5047010;28;20560;-43
2021/03/31 12:38:31;;;;;;;8.63;7.50;;;33.00;18.00;;;;;;5048013;28;20667;-43
2021/03/31 12:40:57;;;;;;;10.13;8.03;;;33.10;18.60;;;;;;5048794;28;20204;-43
2021/03/31 12:43:22;;;;;;;14.27;8.37;;;33.30;18.40;;;;;;5049010;28;20192;-42
2021/03/31 12:45:48;;;;;;;10.13;9.07;;;33.30;17.50;;;;;;5046909;28;20724;-41
2021/03/31 12:48:15;;;;;;;11.70;7.73;;;33.10;17.70;;;;;;5051287;28;20326;-44
2021/03/31 12:50:42;;;;;;;9.97;8.67;;;33.20;17.80;;;;;;5047698;28;20196;-42
2021/03/31 12:55:53;;;;;;;8.20;5.80;;;33.30;17.40;;;;;;5040649;28;20509;-42
2021/03/31 12:58:21;;;;;;;6.90;5.67;;;33.40;16.70;;;;;;5049584;28;20420;-42
2021/03/31 13:00:48;;;;;;;12.90;6.87;;;33.50;18.00;;;;;;5047712;28;20526;-43
2021/03/31 13:03:13;;;;;;;5.90;5.30;;;33.50;18.20;;;;;;5049492;28;20488;-43
2021/03/31 13:05:40;;;;;;;7.00;6.30;;;33.60;17.40;;;;;;5047005;28;20490;-45
2021/03/31 13:08:09;;;;;;;10.10;6.33;;;33.60;17.10;;;;;;5047423;28;20278;-43
2021/03/31 13:10:34;;;;;;;7.77;6.60;;;33.50;18.20;;;;;;5048950;28;20796;-42
2021/03/31 13:13:18;;;;;;;8.00;5.20;;;33.60;18.40;;;;;;5047854;28;20514;-43
2021/03/31 13:15:55;;;;;;;9.40;6.70;;;33.50;18.60;;;;;;5045262;28;20224;-44
2021/03/31 13:26:35;;;;;;;6.03;5.40;;;33.80;17.10;;;;;;5041944;28;20485;-44
2021/03/31 13:29:16;;;;;;;6.37;5.40;;;34.10;17.60;;;;;;5045273;28;20439;-46
2021/03/31 13:32:03;;;;;;;9.40;5.70;;;34.20;17.10;;;;;;5046957;28;20434;-43
2021/03/31 13:34:31;;;;;;;7.07;6.37;;;34.20;16.50;;;;;;5048023;28;20442;-47